Time;durP1;ratioP1;P1;durP2;ratioP2;P2;SDS_P1;SDS_P2;PMS_P1;PMS_P2;Temp;Humidity;BMP_temperature;BMP_pressure;BME280_temperature;BME280_humidity;BME280_pressure;Samples;Min_cycle;Max_cycle;Signal;HPM_P1;HPM_P2
2022/09/17 00:01:41;;;;;;;;;;;;;;;9.78;77.34;99143.36;89085;1264;82341;-59
2022/09/17 00:03:52;;;;;;;;;;;;;;;9.84;77.31;99142.16;89016;1264;98961;-58
2022/09/17 00:06:04;;;;;;;;;;;;;;;9.90;77.51;99141.48;89069;1264;89366;-58
2022/09/17 00:08:15;;;;;;;;;;;;;;;9.94;77.39;99144.34;89035;1264;94423;-58
2022/09/17 00:10:23;;;;;;;;;;;;;;;9.97;77.55;99145.30;89024;1264;80569;-59
2022/09/17 00:12:30;;;;;;;;;;;;;;;9.97;77.49;99142.76;89031;1264;80834;-59
2022/09/17 00:14:41;;;;;;;;;;;;;;;10.08;77.52;99140.50;89007;1264;99520;-59
2022/09/17 00:16:49;;;;;;;;;;;;;;;10.12;77.34;99143.02;89055;1264;89020;-59
2022/09/17 00:18:59;;;;;;;;;;;;;;;10.14;77.33;99141.90;89050;1264;94215;-59
2022/09/17 00:21:15;;;;;;;;;;;;;;;10.12;77.26;99140.61;89052;1264;79765;-59
2022/09/17 00:23:22;;;;;;;;;;;;;;;10.07;77.23;99146.14;89062;1264;81560;-59
2022/09/17 00:25:31;;;;;;;;;;;;;;;10.02;77.15;99148.25;89077;1264;100710;-58
2022/09/17 00:27:40;;;;;;;;;;;;;;;9.97;77.11;99147.13;89089;1264;88137;-59
2022/09/17 00:29:49;;;;;;;;;;;;;;;9.92;77.23;99145.27;89039;1264;93327;-58
2022/09/17 00:31:56;;;;;;;;;;;;;;;9.89;77.30;99146.95;89135;1264;79560;-59
2022/09/17 00:34:06;;;;;;;;;;;;;;;9.86;77.25;99150.12;89081;1264;82012;-59
2022/09/17 00:36:14;;;;;;;;;;;;;;;9.83;77.30;99148.55;89087;1264;98221;-59
2022/09/17 00:38:20;;;;;;;;;;;;;;;9.79;77.36;99152.36;89034;1264;88092;-59
2022/09/17 00:40:27;;;;;;;;;;;;;;;9.76;77.41;99150.95;89004;1264;93168;-60
2022/09/17 00:42:35;;;;;;;;;;;;;;;9.73;77.38;99148.90;89018;1264;81376;-59
2022/09/17 00:44:47;;;;;;;;;;;;;;;9.70;77.38;99151.70;89051;1264;83035;-59
2022/09/17 00:46:55;;;;;;;;;;;;;;;9.67;77.37;99153.16;89057;1264;99952;-59
2022/09/17 00:49:05;;;;;;;;;;;;;;;9.61;77.57;99153.80;89041;1264;89005;-60
2022/09/17 00:51:15;;;;;;;;;;;;;;;9.60;77.72;99155.23;89035;1266;95737;-58
2022/09/17 00:53:22;;;;;;;;;;;;;;;9.60;77.78;99157.63;89005;1266;84096;-58
2022/09/17 00:55:34;;;;;;;;;;;;;;;9.58;77.72;99162.70;89081;1264;81364;-58
2022/09/17 00:57:42;;;;;;;;;;;;;;;9.56;77.79;99163.20;89046;1264;98922;-59
2022/09/17 00:59:50;;;;;;;;;;;;;;;9.52;77.80;99162.75;88923;1264;88234;-59
2022/09/17 01:01:59;;;;;;;;;;;;;;;9.53;77.81;99163.04;89009;1264;95281;-58
2022/09/17 01:04:07;;;;;;;;;;;;;;;9.52;77.87;99162.70;88946;1267;83438;-58
2022/09/17 01:06:19;;;;;;;;;;;;;;;9.48;77.94;99158.44;89010;1264;82014;-59
2022/09/17 01:08:34;;;;;;;;;;;;;;;9.49;77.94;99161.27;88986;1266;100111;-59
2022/09/17 01:11:00;;;;;;;;;;;;;;;9.43;78.06;99159.34;89063;1264;89160;-59
2022/09/17 01:13:16;;;;;;;;;;;;;;;9.42;78.11;99164.52;89013;1264;95997;-59
2022/09/17 01:15:32;;;;;;;;;;;;;;;9.41;78.11;99163.38;89016;1266;81573;-59
2022/09/17 01:17:46;;;;;;;;;;;;;;;9.43;78.07;99162.77;89041;1264;82516;-59
2022/09/17 01:20:36;;;;;;;;;;;;;;;9.50;78.19;99162.60;89036;1264;100180;-60
2022/09/17 01:22:53;;;;;;;;;;;;;;;9.48;78.17;99162.27;89084;1266;87572;-59
2022/09/17 01:25:21;;;;;;;;;;;;;;;9.50;78.04;99162.39;88997;1264;95416;-59
2022/09/17 01:28:00;;;;;;;;;;;;;;;9.48;78.11;99157.54;89023;1264;80151;-58
2022/09/17 01:30:21;;;;;;;;;;;;;;;9.44;78.17;99153.98;89034;1265;82309;-58
2022/09/17 01:32:34;;;;;;;;;;;;;;;9.44;78.10;99157.59;88985;1265;99469;-58
2022/09/17 01:34:48;;;;;;;;;;;;;;;9.41;77.99;99155.29;89039;1266;88211;-59
2022/09/17 01:37:06;;;;;;;;;;;;;;;9.37;78.11;99157.65;89010;1266;95682;-58
2022/09/17 01:39:17;;;;;;;;;;;;;;;9.35;78.15;99160.02;89012;1266;81602;-59
2022/09/17 01:41:31;;;;;;;;;;;;;;;9.32;78.23;99161.65;89036;1266;81525;-59
2022/09/17 01:43:43;;;;;;;;;;;;;;;9.35;78.19;99163.59;89005;1265;97342;-59
2022/09/17 01:45:53;;;;;;;;;;;;;;;9.31;78.13;99158.96;89009;1266;88720;-59
2022/09/17 01:48:04;;;;;;;;;;;;;;;9.30;78.31;99161.41;89027;1265;94490;-58
2022/09/17 01:50:18;;;;;;;;;;;;;;;9.30;78.26;99163.32;88978;1266;82379;-59
2022/09/17 01:52:26;;;;;;;;;;;;;;;9.27;78.27;99163.25;89039;1264;83242;-61
2022/09/17 01:54:35;;;;;;;;;;;;;;;9.26;78.33;99159.38;89048;1264;99309;-59
2022/09/17 01:56:51;;;;;;;;;;;;;;;9.24;78.40;99156.54;89007;1264;88993;-59
2022/09/17 01:59:03;;;;;;;;;;;;;;;9.22;78.42;99158.70;89014;1265;93528;-59
2022/09/17 02:01:12;;;;;;;;;;;;;;;9.20;78.47;99161.73;89057;1264;81454;-59
2022/09/17 02:03:23;;;;;;;;;;;;;;;9.24;78.63;99160.27;89034;1265;80464;-58
2022/09/17 02:05:39;;;;;;;;;;;;;;;9.23;78.69;99159.36;89087;1265;99302;-60
2022/09/17 02:07:50;;;;;;;;;;;;;;;9.24;78.59;99158.14;89005;1264;88853;-60
2022/09/17 02:10:05;;;;;;;;;;;;;;;9.23;78.53;99155.74;88970;1266;96037;-60
2022/09/17 02:12:18;;;;;;;;;;;;;;;9.22;78.52;99154.98;88988;1265;79735;-59
2022/09/17 02:14:31;;;;;;;;;;;;;;;9.22;78.61;99154.21;89019;1266;82501;-58
2022/09/17 02:16:47;;;;;;;;;;;;;;;9.22;78.66;99152.47;89035;1264;97761;-59
2022/09/17 02:19:01;;;;;;;;;;;;;;;9.20;78.63;99151.64;89013;1264;89372;-59
2022/09/17 02:21:17;;;;;;;;;;;;;;;9.17;78.67;99148.16;89011;1265;95021;-60
2022/09/17 02:23:28;;;;;;;;;;;;;;;9.16;78.67;99149.84;89004;1266;80586;-60
2022/09/17 02:25:41;;;;;;;;;;;;;;;9.15;78.67;99153.15;89020;1266;82497;-60
2022/09/17 02:27:55;;;;;;;;;;;;;;;9.15;78.71;99153.86;89017;1264;99722;-60
2022/09/17 02:30:02;;;;;;;;;;;;;;;9.12;78.73;99150.14;89003;1266;88394;-59
2022/09/17 02:32:13;;;;;;;;;;;;;;;9.10;78.81;99150.51;89040;1265;95159;-59
2022/09/17 02:34:21;;;;;;;;;;;;;;;9.12;78.83;99149.38;89012;1265;82161;-59
2022/09/17 02:36:28;;;;;;;;;;;;;;;9.11;78.76;99150.42;89078;1264;81943;-58
2022/09/17 02:38:35;;;;;;;;;;;;;;;9.10;78.79;99150.55;89029;1266;100064;-59
2022/09/17 02:40:48;;;;;;;;;;;;;;;9.08;78.74;99149.35;89037;1264;88440;-59
2022/09/17 02:43:10;;;;;;;;;;;;;;;9.05;78.86;99147.34;89003;1266;95461;-59
2022/09/17 02:45:29;;;;;;;;;;;;;;;8.96;78.85;99143.11;89026;1264;82213;-60
2022/09/17 02:48:00;;;;;;;;;;;;;;;8.98;78.84;99146.02;89018;1266;82571;-61
2022/09/17 02:50:20;;;;;;;;;;;;;;;8.96;78.95;99140.50;89002;1266;100037;-60
2022/09/17 02:52:36;;;;;;;;;;;;;;;9.01;79.00;99143.60;89021;1265;89461;-59
2022/09/17 02:54:53;;;;;;;;;;;;;;;8.98;78.92;99139.13;88969;1264;95852;-59
2022/09/17 02:57:13;;;;;;;;;;;;;;;8.94;78.89;99138.95;89026;1265;81846;-58
2022/09/17 02:59:23;;;;;;;;;;;;;;;8.94;78.94;99137.73;89027;1266;80941;-58
2022/09/17 03:01:38;;;;;;;;;;;;;;;8.95;79.12;99140.22;89028;1266;98736;-58
2022/09/17 03:03:49;;;;;;;;;;;;;;;8.92;79.05;99142.05;89033;1266;88283;-58
2022/09/17 03:05:56;;;;;;;;;;;;;;;8.89;79.23;99143.39;89042;1266;95657;-58
2022/09/17 05:36:06;;;;;;;;;;;;;;;12.61;75.01;99151.95;89512;1256;80034;-59
2022/09/17 05:39:03;;;;;;;;;;;;;;;12.81;74.98;99153.09;89040;1266;100214;-58
2022/09/17 05:41:13;;;;;;;;;;;;;;;12.97;74.19;99146.96;89172;1262;86647;-58
2022/09/17 05:43:20;;;;;;;;;;;;;;;13.11;73.80;99143.79;89121;1262;95035;-58
2022/09/17 05:45:27;;;;;;;;;;;;;;;13.27;73.66;99140.52;89107;1262;80519;-58
2022/09/17 05:47:35;;;;;;;;;;;;;;;13.70;73.34;99140.98;89116;1262;82590;-59
2022/09/17 05:49:42;;;;;;;;;;;;;;;14.49;72.51;99144.23;89179;1262;99523;-59
2022/09/17 05:51:50;;;;;;;;;;;;;;;16.01;72.47;99137.70;89146;1262;88629;-59
2022/09/17 05:53:57;;;;;;;;;;;;;;;17.81;71.12;99135.65;89128;1262;92969;-59
2022/09/17 05:56:05;;;;;;;;;;;;;;;19.41;69.12;99129.18;89140;1262;80309;-60
2022/09/17 05:58:14;;;;;;;;;;;;;;;20.66;66.98;99127.36;89173;1262;82938;-59
2022/09/17 06:00:21;;;;;;;;;;;;;;;21.40;63.96;99126.36;89109;1262;99535;-59
2022/09/17 06:02:31;;;;;;;;;;;;;;;21.56;60.97;99121.45;89129;1262;89029;-59
2022/09/17 06:04:38;;;;;;;;;;;;;;;20.77;60.90;99123.65;89142;1262;95463;-59
2022/09/17 06:06:48;;;;;;;;;;;;;;;20.25;61.13;99121.10;89108;1263;80229;-58
2022/09/17 06:08:55;;;;;;;;;;;;;;;20.04;60.24;99119.02;89223;1262;81466;-58
2022/09/17 06:11:07;;;;;;;;;;;;;;;19.81;59.42;99114.28;89131;1263;99423;-58
2022/09/17 06:13:14;;;;;;;;;;;;;;;19.23;59.38;99109.14;89150;1263;87949;-58
2022/09/17 06:15:20;;;;;;;;;;;;;;;18.71;59.99;99116.56;89096;1262;94957;-59
2022/09/17 06:17:27;;;;;;;;;;;;;;;18.18;60.18;99115.19;89135;1263;80863;-59
2022/09/17 06:19:34;;;;;;;;;;;;;;;17.57;59.27;99114.92;89107;1262;82468;-59
2022/09/17 06:21:41;;;;;;;;;;;;;;;17.03;59.94;99116.70;89125;1262;100464;-58
2022/09/17 06:23:50;;;;;;;;;;;;;;;16.66;60.50;99112.76;89137;1262;86405;-59
2022/09/17 06:25:58;;;;;;;;;;;;;;;16.34;61.15;99111.15;89117;1262;94872;-58
2022/09/17 06:28:08;;;;;;;;;;;;;;;16.02;61.86;99109.64;89092;1265;80690;-59
2022/09/17 06:30:16;;;;;;;;;;;;;;;15.70;62.21;99109.83;89126;1262;80541;-57
2022/09/17 06:32:24;;;;;;;;;;;;;;;15.46;62.42;99105.69;89099;1262;99645;-58
2022/09/17 06:34:31;;;;;;;;;;;;;;;15.29;62.57;99108.61;89165;1262;88586;-59
2022/09/17 06:36:38;;;;;;;;;;;;;;;15.23;62.90;99108.04;89140;1262;94934;-58
2022/09/17 06:38:45;;;;;;;;;;;;;;;15.19;63.14;99107.22;89131;1262;80878;-58
2022/09/17 06:40:54;;;;;;;;;;;;;;;15.26;63.39;99104.76;89137;1262;82009;-59
2022/09/17 06:43:02;;;;;;;;;;;;;;;15.36;63.35;99100.00;89191;1263;100135;-58
2022/09/17 06:45:11;;;;;;;;;;;;;;;15.37;63.63;99098.23;89141;1263;89668;-57
2022/09/17 06:47:18;;;;;;;;;;;;;;;15.40;63.31;99095.20;89132;1262;94773;-58
2022/09/17 06:49:26;;;;;;;;;;;;;;;15.45;63.55;99097.07;89157;1264;79134;-58
2022/09/17 06:51:33;;;;;;;;;;;;;;;15.63;63.35;99101.04;89161;1264;82334;-59
2022/09/17 06:53:41;;;;;;;;;;;;;;;15.68;63.42;99097.34;89127;1263;98164;-58
2022/09/17 06:55:48;;;;;;;;;;;;;;;15.67;63.30;99100.82;89130;1262;89622;-58
2022/09/17 06:57:58;;;;;;;;;;;;;;;15.64;63.47;99107.02;89170;1264;94947;-59
2022/09/17 07:00:12;;;;;;;;;;;;;;;15.50;63.45;99107.33;89120;1263;80817;-60
2022/09/17 07:02:19;;;;;;;;;;;;;;;15.27;63.73;99108.25;89208;1263;80254;-57
2022/09/17 07:04:26;;;;;;;;;;;;;;;15.17;63.80;99109.86;89159;1262;98654;-58
2022/09/17 07:06:33;;;;;;;;;;;;;;;15.22;64.06;99115.76;89143;1262;89409;-58
2022/09/17 07:08:40;;;;;;;;;;;;;;;15.19;64.13;99113.64;89122;1268;95536;-58
2022/09/17 07:10:48;;;;;;;;;;;;;;;15.25;63.80;99115.46;89081;1263;80212;-57
2022/09/17 07:12:55;;;;;;;;;;;;;;;15.19;63.93;99118.16;89122;1264;82405;-58
2022/09/17 07:15:02;;;;;;;;;;;;;;;15.09;64.13;99120.45;89164;1262;99329;-58
2022/09/17 07:17:10;;;;;;;;;;;;;;;15.01;64.05;99124.79;89179;1264;87832;-57
2022/09/17 07:19:26;;;;;;;;;;;;;;;14.93;64.11;99127.55;89109;1268;96839;-57
2022/09/17 07:21:33;;;;;;;;;;;;;;;14.73;64.38;99134.53;89155;1264;80716;-58
2022/09/17 07:23:41;;;;;;;;;;;;;;;14.58;64.34;99136.11;89180;1262;81441;-59
2022/09/17 07:25:52;;;;;;;;;;;;;;;14.45;64.58;99138.33;89140;1262;100037;-58
2022/09/17 07:28:05;;;;;;;;;;;;;;;14.36;64.78;99139.85;89167;1263;89355;-58
2022/09/17 07:30:14;;;;;;;;;;;;;;;14.25;65.18;99146.88;89162;1264;95596;-58
2022/09/17 07:32:22;;;;;;;;;;;;;;;14.24;65.41;99150.73;89170;1268;80655;-59
2022/09/17 07:34:29;;;;;;;;;;;;;;;14.25;65.63;99147.81;89178;1264;80622;-59
2022/09/17 07:36:39;;;;;;;;;;;;;;;14.28;65.73;99149.67;89216;1264;99855;-59
2022/09/17 07:38:48;;;;;;;;;;;;;;;14.26;65.77;99147.06;89144;1268;89388;-58
2022/09/17 07:41:03;;;;;;;;;;;;;;;14.25;65.92;99148.95;89084;1264;95432;-58
2022/09/17 07:43:12;;;;;;;;;;;;;;;14.25;66.05;99152.17;89161;1263;80669;-59
2022/09/17 07:45:23;;;;;;;;;;;;;;;14.18;66.08;99155.98;89136;1264;83023;-59
2022/09/17 07:47:31;;;;;;;;;;;;;;;14.15;65.95;99154.75;89151;1262;99573;-59
2022/09/17 07:49:39;;;;;;;;;;;;;;;14.10;65.95;99158.29;89168;1262;87801;-59
2022/09/17 07:51:47;;;;;;;;;;;;;;;14.01;66.31;99161.66;89151;1262;95230;-59
2022/09/17 07:53:58;;;;;;;;;;;;;;;13.96;66.28;99165.88;89149;1262;80593;-60
2022/09/17 07:56:08;;;;;;;;;;;;;;;13.81;66.47;99161.67;89105;1263;82165;-58
2022/09/17 07:58:19;;;;;;;;;;;;;;;13.75;66.78;99160.25;89135;1264;98628;-59
2022/09/17 08:00:26;;;;;;;;;;;;;;;13.73;66.84;99160.85;89162;1263;87310;-58
2022/09/17 08:02:33;;;;;;;;;;;;;;;13.63;67.05;99162.44;89167;1264;94988;-59
2022/09/17 08:04:43;;;;;;;;;;;;;;;13.57;67.26;99165.20;89111;1262;80948;-58
2022/09/17 08:06:50;;;;;;;;;;;;;;;13.51;67.40;99170.63;89166;1264;81466;-59
2022/09/17 08:08:58;;;;;;;;;;;;;;;13.50;67.34;99167.05;89174;1264;97712;-59
2022/09/17 08:11:11;;;;;;;;;;;;;;;13.53;67.57;99169.88;89186;1264;87932;-59
2022/09/17 08:13:18;;;;;;;;;;;;;;;13.49;67.57;99173.16;89119;1263;93688;-59
2022/09/17 08:15:28;;;;;;;;;;;;;;;13.47;67.70;99167.36;89127;1263;80779;-58
2022/09/17 08:17:36;;;;;;;;;;;;;;;13.40;67.87;99170.67;89181;1264;80263;-56
2022/09/17 08:19:44;;;;;;;;;;;;;;;13.42;67.91;99171.30;89157;1268;99954;-58
2022/09/17 08:21:51;;;;;;;;;;;;;;;13.40;68.24;99165.34;89146;1263;86428;-58
2022/09/17 08:23:58;;;;;;;;;;;;;;;13.41;68.40;99168.35;89137;1263;94466;-59
2022/09/17 08:26:08;;;;;;;;;;;;;;;13.38;68.48;99166.94;89145;1262;80494;-58
2022/09/17 08:28:15;;;;;;;;;;;;;;;13.34;68.47;99168.80;89155;1264;82078;-59
2022/09/17 08:30:23;;;;;;;;;;;;;;;13.34;68.75;99172.06;89127;1262;99440;-59
2022/09/17 08:32:30;;;;;;;;;;;;;;;13.45;68.88;99176.42;89138;1262;87136;-58
2022/09/17 08:34:47;;;;;;;;;;;;;;;13.60;68.68;99183.48;89100;1264;97496;-58
2022/09/17 08:36:55;;;;;;;;;;;;;;;13.71;68.86;99183.17;89166;1264;80641;-59
2022/09/17 08:39:04;;;;;;;;;;;;;;;13.83;68.88;99184.08;89111;1264;81225;-58
2022/09/17 08:41:24;;;;;;;;;;;;;;;14.09;68.77;99188.74;89113;1263;99782;-58
2022/09/17 08:43:34;;;;;;;;;;;;;;;14.36;68.71;99192.02;89152;1264;88465;-57
2022/09/17 08:45:46;;;;;;;;;;;;;;;14.58;68.32;99192.00;89159;1264;94700;-58
2022/09/17 08:47:59;;;;;;;;;;;;;;;14.68;68.16;99195.80;89147;1264;83018;-58
2022/09/17 08:50:08;;;;;;;;;;;;;;;14.71;68.03;99196.81;89206;1264;81853;-58
2022/09/17 08:53:03;;;;;;;;;;;;;;;14.75;67.56;99193.00;89168;1262;99614;-56
2022/09/17 08:55:23;;;;;;;;;;;;;;;14.68;67.45;99191.20;89172;1263;87749;-58
2022/09/17 08:57:38;;;;;;;;;;;;;;;14.57;67.32;99190.24;89172;1264;95253;-58
2022/09/17 08:59:54;;;;;;;;;;;;;;;14.54;67.48;99194.63;89193;1263;80655;-58
2022/09/17 09:02:22;;;;;;;;;;;;;;;14.48;67.10;99188.38;89212;1264;81068;-58
2022/09/17 09:04:45;;;;;;;;;;;;;;;14.61;67.21;99184.54;89126;1264;98187;-56
2022/09/17 09:06:59;;;;;;;;;;;;;;;14.83;67.50;99180.41;89116;1262;88992;-57
2022/09/17 09:09:12;;;;;;;;;;;;;;;15.02;67.28;99183.92;89101;1263;94253;-59
2022/09/17 09:11:25;;;;;;;;;;;;;;;15.11;67.30;99183.75;89103;1262;80122;-57
2022/09/17 09:13:37;;;;;;;;;;;;;;;15.22;67.10;99184.75;89125;1263;81018;-57
2022/09/17 09:15:47;;;;;;;;;;;;;;;15.36;66.94;99179.34;89114;1262;99212;-57
2022/09/17 09:17:55;;;;;;;;;;;;;;;15.48;66.88;99183.75;89132;1264;89501;-58
2022/09/17 09:20:05;;;;;;;;;;;;;;;15.52;66.30;99185.54;89115;1263;95254;-58
2022/09/17 09:22:25;;;;;;;;;;;;;;;15.52;65.89;99190.23;89154;1262;80373;-58
2022/09/17 09:24:40;;;;;;;;;;;;;;;15.53;65.64;99188.34;89159;1264;80975;-58
2022/09/17 09:26:52;;;;;;;;;;;;;;;15.55;65.81;99188.15;89117;1262;99616;-58
2022/09/17 09:29:17;;;;;;;;;;;;;;;15.60;65.62;99190.50;89165;1264;88310;-59
2022/09/17 09:31:40;;;;;;;;;;;;;;;15.57;65.54;99192.96;89152;1262;94973;-57
2022/09/17 09:33:47;;;;;;;;;;;;;;;15.49;65.78;99195.94;89161;1262;80045;-58
2022/09/17 09:35:59;;;;;;;;;;;;;;;15.51;65.50;99192.89;89183;1262;81683;-58
2022/09/17 09:38:14;;;;;;;;;;;;;;;15.44;65.28;99193.30;89165;1264;99817;-57
2022/09/17 09:40:32;;;;;;;;;;;;;;;15.38;65.69;99193.48;89146;1263;88246;-55
2022/09/17 09:42:40;;;;;;;;;;;;;;;15.25;66.02;99198.06;89125;1264;94239;-59
2022/09/17 09:44:48;;;;;;;;;;;;;;;15.06;66.23;99195.04;89067;1263;79680;-59
2022/09/17 09:47:14;;;;;;;;;;;;;;;14.88;66.47;99193.92;89160;1262;82521;-57
2022/09/17 09:49:31;;;;;;;;;;;;;;;14.52;66.96;99196.88;89144;1264;97368;-57
2022/09/17 09:51:51;;;;;;;;;;;;;;;14.20;67.43;99201.08;89086;1266;88489;-58
2022/09/17 09:54:10;;;;;;;;;;;;;;;13.99;67.95;99209.34;89147;1262;95653;-59
2022/09/17 09:56:34;;;;;;;;;;;;;;;13.92;68.64;99211.73;89138;1264;78698;-58
2022/09/17 09:58:43;;;;;;;;;;;;;;;13.99;68.96;99205.27;89130;1262;80628;-58
2022/09/17 10:00:51;;;;;;;;;;;;;;;14.06;69.38;99201.61;89123;1263;98894;-61
2022/09/17 10:03:07;;;;;;;;;;;;;;;14.23;69.77;99196.50;89154;1263;88825;-57
2022/09/17 10:05:15;;;;;;;;;;;;;;;14.37;69.97;99191.81;89123;1264;95348;-58
2022/09/17 10:07:23;;;;;;;;;;;;;;;14.61;69.97;99196.50;89139;1264;80680;-58
2022/09/17 10:09:36;;;;;;;;;;;;;;;14.78;69.81;99194.57;89143;1262;81324;-58
2022/09/17 10:12:01;;;;;;;;;;;;;;;14.85;69.77;99191.91;89184;1263;99070;-59
2022/09/17 10:14:26;;;;;;;;;;;;;;;14.91;69.70;99196.04;89174;1263;86646;-58
2022/09/17 10:16:35;;;;;;;;;;;;;;;15.01;69.82;99195.40;89160;1264;94439;-59
2022/09/17 10:18:43;;;;;;;;;;;;;;;15.18;69.88;99194.48;89182;1263;79130;-59
2022/09/17 10:20:58;;;;;;;;;;;;;;;15.34;69.81;99194.34;89141;1263;82434;-58
2022/09/17 10:23:15;;;;;;;;;;;;;;;15.55;69.64;99197.40;89187;1263;97810;-57
2022/09/17 10:25:44;;;;;;;;;;;;;;;15.68;69.16;99197.48;89155;1264;88243;-57
2022/09/17 10:28:06;;;;;;;;;;;;;;;15.73;68.79;99197.55;89099;1264;92958;-57
2022/09/17 10:30:23;;;;;;;;;;;;;;;15.99;68.97;99200.77;89146;1264;76986;-58
2022/09/17 10:32:35;;;;;;;;;;;;;;;16.29;68.49;99200.91;89050;1265;80669;-58
2022/09/17 10:34:57;;;;;;;;;;;;;;;16.55;67.66;99202.80;89174;1262;100709;-57
2022/09/17 10:37:05;;;;;;;;;;;;;;;16.88;67.28;99202.85;89140;1262;89112;-58
2022/09/17 10:39:43;;;;;;;;;;;;;;;17.00;67.25;99209.13;89142;1262;93235;-58
2022/09/17 10:41:57;;;;;;;;;;;;;;;16.93;66.72;99206.73;89055;1264;80207;-57
2022/09/17 10:44:17;;;;;;;;;;;;;;;16.86;66.32;99211.08;89170;1264;84348;-58
2022/09/17 10:46:32;;;;;;;;;;;;;;;16.71;65.36;99208.11;89119;1262;99991;-57
2022/09/17 10:48:45;;;;;;;;;;;;;;;16.56;65.45;99206.86;89137;1263;87849;-57
2022/09/17 10:50:53;;;;;;;;;;;;;;;16.50;65.24;99204.92;89137;1264;95548;-57
2022/09/17 10:53:03;;;;;;;;;;;;;;;16.39;65.22;99208.55;89124;1262;79344;-57
2022/09/17 10:55:21;;;;;;;;;;;;;;;16.35;65.56;99214.61;89175;1262;81440;-57
2022/09/17 10:57:38;;;;;;;;;;;;;;;16.27;64.48;99218.05;89181;1262;99901;-57
2022/09/17 11:00:02;;;;;;;;;;;;;;;16.14;64.68;99221.39;89209;1262;89119;-58
2022/09/17 11:02:26;;;;;;;;;;;;;;;16.06;64.75;99223.09;89089;1267;95561;-58
2022/09/17 11:04:41;;;;;;;;;;;;;;;15.99;64.59;99234.27;89178;1264;80972;-57
2022/09/17 11:07:02;;;;;;;;;;;;;;;15.93;64.63;99240.17;89157;1263;80920;-58
2022/09/17 11:09:20;;;;;;;;;;;;;;;15.90;64.69;99243.41;89193;1262;99818;-58
2022/09/17 11:11:39;;;;;;;;;;;;;;;15.94;64.79;99236.89;89166;1264;89523;-57
2022/09/17 11:13:54;;;;;;;;;;;;;;;16.01;65.12;99238.83;89159;1262;92775;-58
2022/09/17 11:16:24;;;;;;;;;;;;;;;16.24;65.25;99228.53;89198;1262;79851;-58
2022/09/17 11:18:50;;;;;;;;;;;;;;;16.64;64.53;99224.11;89127;1262;83122;-57
2022/09/17 11:21:31;;;;;;;;;;;;;;;16.76;64.70;99214.25;89152;1262;98628;-58
2022/09/17 11:24:11;;;;;;;;;;;;;;;16.81;64.20;99212.16;88986;1262;88885;-58
2022/09/17 11:26:27;;;;;;;;;;;;;;;16.93;64.31;99210.96;89140;1263;95652;-58
2022/09/17 11:28:49;;;;;;;;;;;;;;;17.06;64.10;99209.34;89091;1262;78011;-56
2022/09/17 11:31:04;;;;;;;;;;;;;;;17.23;64.23;99206.20;89186;1263;81393;-56
2022/09/17 11:33:50;;;;;;;;;;;;;;;17.39;64.32;99200.15;89153;1262;99493;-57
2022/09/17 11:36:00;;;;;;;;;;;;;;;17.73;63.97;99197.17;89084;1264;89100;-57
2022/09/17 11:38:12;;;;;;;;;;;;;;;17.93;63.82;99197.92;89194;1262;95492;-57
2022/09/17 11:40:25;;;;;;;;;;;;;;;18.09;63.33;99200.08;89186;1262;79267;-57
2022/09/17 11:42:39;;;;;;;;;;;;;;;18.18;63.08;99197.64;89149;1262;81237;-58
2022/09/17 11:44:51;;;;;;;;;;;;;;;18.17;62.73;99200.60;89172;1262;99695;-58
2022/09/17 11:47:04;;;;;;;;;;;;;;;18.02;62.41;99196.92;89216;1262;87674;-59
2022/09/17 11:49:19;;;;;;;;;;;;;;;17.78;62.16;99201.23;89216;1262;94733;-58
2022/09/17 11:51:30;;;;;;;;;;;;;;;17.46;61.85;99202.44;89155;1262;79850;-59
2022/09/17 11:53:41;;;;;;;;;;;;;;;17.28;61.90;99198.38;89188;1262;81783;-58
2022/09/17 11:55:56;;;;;;;;;;;;;;;17.16;61.96;99201.39;89167;1262;99736;-59
2022/09/17 11:58:11;;;;;;;;;;;;;;;16.99;62.14;99202.69;89204;1263;87098;-59
2022/09/17 12:00:21;;;;;;;;;;;;;;;16.85;62.18;99206.81;89164;1262;94135;-59
2022/09/17 12:02:35;;;;;;;;;;;;;;;16.61;62.47;99206.96;89149;1262;79429;-58
2022/09/17 12:04:48;;;;;;;;;;;;;;;16.53;62.72;99202.66;89131;1262;82619;-57
2022/09/17 12:07:02;;;;;;;;;;;;;;;16.48;63.11;99201.39;89145;1262;99426;-58
2022/09/17 12:09:16;;;;;;;;;;;;;;;16.45;63.15;99196.07;89172;1262;88503;-56
2022/09/17 12:11:28;;;;;;;;;;;;;;;16.38;63.12;99198.94;89129;1262;94038;-58
2022/09/17 12:13:40;;;;;;;;;;;;;;;16.36;62.96;99197.66;89158;1262;79393;-58
2022/09/17 12:16:02;;;;;;;;;;;;;;;16.34;62.56;99199.83;89130;1262;82988;-58
2022/09/17 12:18:27;;;;;;;;;;;;;;;16.30;62.81;99203.44;89127;1264;100224;-58
2022/09/17 12:20:42;;;;;;;;;;;;;;;16.35;62.85;99199.73;89076;1262;88115;-58
2022/09/17 12:22:51;;;;;;;;;;;;;;;16.35;63.31;99192.52;89127;1262;94118;-59
2022/09/17 12:25:01;;;;;;;;;;;;;;;16.41;62.95;99187.80;89178;1262;79313;-59
2022/09/17 12:27:24;;;;;;;;;;;;;;;16.45;62.64;99192.04;89174;1262;82049;-58
2022/09/17 12:29:51;;;;;;;;;;;;;;;16.40;62.95;99189.76;89171;1262;98848;-58
2022/09/17 12:32:04;;;;;;;;;;;;;;;16.43;62.70;99194.52;89152;1264;88464;-60
2022/09/17 12:34:26;;;;;;;;;;;;;;;16.37;62.94;99199.11;89156;1264;94781;-59
2022/09/17 12:36:47;;;;;;;;;;;;;;;16.37;62.72;99207.81;89111;1263;79364;-58
2022/09/17 12:39:25;;;;;;;;;;;;;;;16.17;62.82;99209.88;89075;1264;82790;-58
2022/09/17 12:41:43;;;;;;;;;;;;;;;16.07;63.21;99207.08;89056;1267;97806;-59
2022/09/17 12:44:16;;;;;;;;;;;;;;;16.00;63.47;99209.93;88532;1264;816184;-59
2022/09/17 12:46:44;;;;;;;;;;;;;;;15.94;63.77;99217.44;89078;1264;95393;-56
2022/09/17 12:49:23;;;;;;;;;;;;;;;15.91;63.84;99213.96;89010;1264;79571;-58
2022/09/17 12:51:52;;;;;;;;;;;;;;;15.79;64.24;99209.12;89126;1263;82608;-58
2022/09/17 12:54:10;;;;;;;;;;;;;;;15.72;64.46;99200.20;89091;1264;99207;-58
2022/09/17 12:56:30;;;;;;;;;;;;;;;15.74;64.55;99193.59;89053;1264;88868;-58
2022/09/17 12:58:50;;;;;;;;;;;;;;;15.80;64.80;99196.27;89059;1265;95659;-58
2022/09/17 13:01:06;;;;;;;;;;;;;;;15.85;64.75;99188.55;89019;1264;80281;-58
2022/09/17 13:03:20;;;;;;;;;;;;;;;15.84;64.66;99189.52;89075;1264;83102;-58
2022/09/17 13:05:50;;;;;;;;;;;;;;;15.79;64.74;99188.63;89121;1264;98422;-58
2022/09/17 13:08:24;;;;;;;;;;;;;;;15.71;64.89;99187.94;89145;1264;87601;-59
2022/09/17 13:11:05;;;;;;;;;;;;;;;15.64;64.97;99188.38;89132;1264;95933;-58
2022/09/17 13:13:25;;;;;;;;;;;;;;;15.60;65.01;99188.65;88976;1263;80463;-58
2022/09/17 13:15:52;;;;;;;;;;;;;;;15.57;65.11;99187.70;89107;1263;82643;-57
2022/09/17 13:18:10;;;;;;;;;;;;;;;15.57;64.80;99189.95;89118;1263;97640;-58
2022/09/17 13:20:22;;;;;;;;;;;;;;;15.50;64.86;99193.07;89034;1265;87485;-58
2022/09/17 13:22:44;;;;;;;;;;;;;;;15.40;65.07;99193.07;89129;1264;94448;-58
2022/09/17 13:25:05;;;;;;;;;;;;;;;15.32;65.19;99197.14;89109;1264;80758;-57
2022/09/17 13:27:22;;;;;;;;;;;;;;;15.22;65.35;99199.93;89150;1263;82073;-58
2022/09/17 13:30:01;;;;;;;;;;;;;;;15.18;65.43;99198.50;89112;1263;98086;-59
2022/09/17 13:32:10;;;;;;;;;;;;;;;15.11;65.73;99200.46;89139;1264;87608;-59
2022/09/17 13:34:34;;;;;;;;;;;;;;;15.11;65.96;99204.38;89096;1264;95483;-58
2022/09/17 13:36:48;;;;;;;;;;;;;;;15.10;66.07;99201.98;89127;1263;79607;-58
2022/09/17 13:38:57;;;;;;;;;;;;;;;15.08;66.23;99202.80;89164;1264;82332;-59
2022/09/17 13:41:20;;;;;;;;;;;;;;;15.03;66.38;99199.51;89160;1263;99224;-58
2022/09/17 13:43:28;;;;;;;;;;;;;;;14.95;66.44;99196.29;89184;1262;89032;-57
2022/09/17 13:45:57;;;;;;;;;;;;;;;14.89;66.47;99198.84;89133;1262;93806;-58
2022/09/17 13:48:13;;;;;;;;;;;;;;;14.84;66.63;99203.21;89196;1262;80916;-57
2022/09/17 13:50:32;;;;;;;;;;;;;;;14.75;66.67;99204.36;89152;1262;81797;-58
2022/09/17 13:52:45;;;;;;;;;;;;;;;14.72;66.82;99202.90;89225;1262;99217;-59
2022/09/17 13:54:53;;;;;;;;;;;;;;;14.63;67.10;99204.26;89249;1262;88294;-59
2022/09/17 13:57:16;;;;;;;;;;;;;;;14.64;67.14;99202.70;89194;1262;94894;-59
2022/09/17 13:59:27;;;;;;;;;;;;;;;14.64;67.36;99199.29;89150;1262;80152;-59
2022/09/17 14:02:05;;;;;;;;;;;;;;;14.70;67.49;99190.52;89157;1262;81616;-58
2022/09/17 14:04:45;;;;;;;;;;;;;;;14.81;67.56;99194.52;89155;1262;98963;-57
2022/09/17 14:06:58;;;;;;;;;;;;;;;14.95;67.59;99195.40;89132;1262;88947;-58
2022/09/17 14:09:22;;;;;;;;;;;;;;;15.04;67.45;99184.37;89135;1262;95010;-59